sensor_id;sensor_type;location;lat;lon;timestamp;P1;durP1;ratioP1;P2;durP2;ratioP2
75984;SDS011;65033;44.660;37.758;2023-02-26T00:00:03;5.68;;;3.70;;
75984;SDS011;65033;44.660;37.758;2023-02-26T00:01:11;4.90;;;3.03;;
75984;SDS011;65033;44.660;37.758;2023-02-26T00:02:16;5.10;;;3.15;;
75984;SDS011;65033;44.660;37.758;2023-02-26T00:03:19;5.07;;;3.45;;
75984;SDS011;65033;44.660;37.758;2023-02-26T00:04:23;5.68;;;3.80;;
75984;SDS011;65033;44.660;37.758;2023-02-26T00:05:26;5.70;;;3.53;;
75984;SDS011;65033;44.660;37.758;2023-02-26T00:06:30;5.45;;;3.30;;
75984;SDS011;65033;44.660;37.758;2023-02-26T00:07:34;5.45;;;3.70;;
75984;SDS011;65033;44.660;37.758;2023-02-26T00:08:38;6.20;;;3.40;;
75984;SDS011;65033;44.660;37.758;2023-02-26T00:09:41;5.15;;;3.40;;
75984;SDS011;65033;44.660;37.758;2023-02-26T00:10:44;4.43;;;3.20;;
75984;SDS011;65033;44.660;37.758;2023-02-26T00:11:47;6.00;;;2.97;;
75984;SDS011;65033;44.660;37.758;2023-02-26T00:12:51;5.50;;;3.28;;
75984;SDS011;65033;44.660;37.758;2023-02-26T00:13:57;5.65;;;3.55;;
75984;SDS011;65033;44.660;37.758;2023-02-26T00:15:00;4.82;;;3.03;;
75984;SDS011;65033;44.660;37.758;2023-02-26T00:16:08;6.85;;;3.28;;
75984;SDS011;65033;44.660;37.758;2023-02-26T00:17:22;5.85;;;4.18;;
75984;SDS011;65033;44.660;37.758;2023-02-26T00:18:34;4.65;;;3.22;;
75984;SDS011;65033;44.660;37.758;2023-02-26T00:19:37;6.30;;;3.70;;
75984;SDS011;65033;44.660;37.758;2023-02-26T00:20:41;6.22;;;3.65;;
75984;SDS011;65033;44.660;37.758;2023-02-26T00:21:45;5.18;;;3.30;;
75984;SDS011;65033;44.660;37.758;2023-02-26T00:22:49;5.75;;;3.42;;
75984;SDS011;65033;44.660;37.758;2023-02-26T00:23:53;5.05;;;3.53;;
75984;SDS011;65033;44.660;37.758;2023-02-26T00:24:57;5.55;;;3.60;;
75984;SDS011;65033;44.660;37.758;2023-02-26T00:26:00;4.35;;;3.30;;
75984;SDS011;65033;44.660;37.758;2023-02-26T00:27:03;4.90;;;3.30;;
75984;SDS011;65033;44.660;37.758;2023-02-26T00:28:07;5.15;;;3.60;;
75984;SDS011;65033;44.660;37.758;2023-02-26T00:29:12;4.70;;;3.10;;
75984;SDS011;65033;44.660;37.758;2023-02-26T00:30:16;5.43;;;3.33;;
75984;SDS011;65033;44.660;37.758;2023-02-26T00:31:20;5.63;;;3.63;;
75984;SDS011;65033;44.660;37.758;2023-02-26T00:32:27;5.63;;;3.58;;
75984;SDS011;65033;44.660;37.758;2023-02-26T00:33:33;5.30;;;3.40;;
75984;SDS011;65033;44.660;37.758;2023-02-26T00:34:37;4.50;;;3.05;;
75984;SDS011;65033;44.660;37.758;2023-02-26T00:35:42;3.88;;;2.95;;
75984;SDS011;65033;44.660;37.758;2023-02-26T00:36:47;5.07;;;3.20;;
75984;SDS011;65033;44.660;37.758;2023-02-26T00:37:57;5.22;;;3.42;;
75984;SDS011;65033;44.660;37.758;2023-02-26T00:39:05;5.80;;;3.42;;
75984;SDS011;65033;44.660;37.758;2023-02-26T00:40:17;5.45;;;3.55;;
75984;SDS011;65033;44.660;37.758;2023-02-26T00:41:28;4.18;;;2.95;;
75984;SDS011;65033;44.660;37.758;2023-02-26T00:42:32;5.85;;;3.50;;
75984;SDS011;65033;44.660;37.758;2023-02-26T00:43:37;4.43;;;3.20;;
75984;SDS011;65033;44.660;37.758;2023-02-26T00:44:42;5.70;;;3.10;;
75984;SDS011;65033;44.660;37.758;2023-02-26T00:45:48;6.18;;;4.05;;
75984;SDS011;65033;44.660;37.758;2023-02-26T00:47:02;5.63;;;3.33;;
75984;SDS011;65033;44.660;37.758;2023-02-26T00:48:15;4.97;;;3.33;;
75984;SDS011;65033;44.660;37.758;2023-02-26T00:49:42;5.47;;;3.55;;
75984;SDS011;65033;44.660;37.758;2023-02-26T00:50:52;4.70;;;3.30;;
75984;SDS011;65033;44.660;37.758;2023-02-26T00:52:01;5.90;;;3.47;;
75984;SDS011;65033;44.660;37.758;2023-02-26T00:53:09;4.60;;;3.38;;
75984;SDS011;65033;44.660;37.758;2023-02-26T00:54:20;4.78;;;3.05;;
75984;SDS011;65033;44.660;37.758;2023-02-26T00:55:25;4.93;;;3.17;;
75984;SDS011;65033;44.660;37.758;2023-02-26T00:56:30;4.93;;;3.00;;
75984;SDS011;65033;44.660;37.758;2023-02-26T00:57:34;4.45;;;3.05;;
75984;SDS011;65033;44.660;37.758;2023-02-26T00:58:37;4.50;;;3.47;;
75984;SDS011;65033;44.660;37.758;2023-02-26T00:59:42;5.97;;;3.70;;
75984;SDS011;65033;44.660;37.758;2023-02-26T01:00:45;6.05;;;3.53;;
75984;SDS011;65033;44.660;37.758;2023-02-26T01:01:48;5.32;;;3.45;;
75984;SDS011;65033;44.660;37.758;2023-02-26T01:02:53;4.85;;;3.30;;
75984;SDS011;65033;44.660;37.758;2023-02-26T01:03:57;5.03;;;3.53;;
75984;SDS011;65033;44.660;37.758;2023-02-26T01:05:01;5.80;;;3.75;;
75984;SDS011;65033;44.660;37.758;2023-02-26T01:06:09;5.32;;;3.50;;
75984;SDS011;65033;44.660;37.758;2023-02-26T01:07:13;5.55;;;3.38;;
75984;SDS011;65033;44.660;37.758;2023-02-26T01:08:17;5.47;;;3.42;;
75984;SDS011;65033;44.660;37.758;2023-02-26T01:09:25;5.50;;;3.38;;
75984;SDS011;65033;44.660;37.758;2023-02-26T01:10:30;6.20;;;3.63;;
75984;SDS011;65033;44.660;37.758;2023-02-26T01:11:34;5.40;;;3.35;;
75984;SDS011;65033;44.660;37.758;2023-02-26T01:12:38;5.15;;;3.53;;
75984;SDS011;65033;44.660;37.758;2023-02-26T01:13:43;5.90;;;3.45;;
75984;SDS011;65033;44.660;37.758;2023-02-26T01:14:48;4.53;;;2.97;;
75984;SDS011;65033;44.660;37.758;2023-02-26T01:15:58;4.60;;;3.20;;
75984;SDS011;65033;44.660;37.758;2023-02-26T01:17:07;4.50;;;3.20;;
75984;SDS011;65033;44.660;37.758;2023-02-26T01:18:18;4.78;;;3.40;;
75984;SDS011;65033;44.660;37.758;2023-02-26T01:19:28;4.70;;;3.22;;
75984;SDS011;65033;44.660;37.758;2023-02-26T01:20:37;5.53;;;3.80;;
75984;SDS011;65033;44.660;37.758;2023-02-26T01:21:48;5.78;;;3.58;;
75984;SDS011;65033;44.660;37.758;2023-02-26T01:22:58;4.07;;;3.10;;
75984;SDS011;65033;44.660;37.758;2023-02-26T01:24:05;5.93;;;3.80;;
75984;SDS011;65033;44.660;37.758;2023-02-26T01:25:12;4.82;;;3.65;;
75984;SDS011;65033;44.660;37.758;2023-02-26T01:26:21;5.40;;;3.40;;
75984;SDS011;65033;44.660;37.758;2023-02-26T01:27:27;4.38;;;3.50;;
75984;SDS011;65033;44.660;37.758;2023-02-26T01:28:31;5.47;;;3.28;;
75984;SDS011;65033;44.660;37.758;2023-02-26T01:29:35;5.13;;;3.40;;
75984;SDS011;65033;44.660;37.758;2023-02-26T01:30:40;4.03;;;2.92;;
75984;SDS011;65033;44.660;37.758;2023-02-26T01:31:47;5.03;;;3.47;;
75984;SDS011;65033;44.660;37.758;2023-02-26T01:32:56;4.30;;;3.17;;
75984;SDS011;65033;44.660;37.758;2023-02-26T01:34:05;6.00;;;3.33;;
75984;SDS011;65033;44.660;37.758;2023-02-26T01:35:16;6.68;;;3.85;;
75984;SDS011;65033;44.660;37.758;2023-02-26T01:36:35;4.78;;;3.42;;
75984;SDS011;65033;44.660;37.758;2023-02-26T01:37:46;5.25;;;3.38;;
75984;SDS011;65033;44.660;37.758;2023-02-26T01:38:56;4.95;;;3.20;;
75984;SDS011;65033;44.660;37.758;2023-02-26T01:40:28;4.97;;;3.55;;
75984;SDS011;65033;44.660;37.758;2023-02-26T01:42:02;4.82;;;3.67;;
75984;SDS011;65033;44.660;37.758;2023-02-26T01:43:13;6.13;;;3.53;;
75984;SDS011;65033;44.660;37.758;2023-02-26T01:44:25;5.47;;;3.60;;
75984;SDS011;65033;44.660;37.758;2023-02-26T01:45:32;4.43;;;3.30;;
75984;SDS011;65033;44.660;37.758;2023-02-26T01:46:43;6.13;;;4.13;;
75984;SDS011;65033;44.660;37.758;2023-02-26T01:47:56;5.05;;;3.45;;
75984;SDS011;65033;44.660;37.758;2023-02-26T01:50:10;5.10;;;3.15;;
75984;SDS011;65033;44.660;37.758;2023-02-26T01:51:16;5.72;;;2.95;;
75984;SDS011;65033;44.660;37.758;2023-02-26T01:54:04;5.93;;;3.70;;
75984;SDS011;65033;44.660;37.758;2023-02-26T01:55:07;5.45;;;3.33;;
75984;SDS011;65033;44.660;37.758;2023-02-26T01:56:12;7.50;;;4.20;;
75984;SDS011;65033;44.660;37.758;2023-02-26T01:57:19;5.28;;;3.30;;
75984;SDS011;65033;44.660;37.758;2023-02-26T01:58:24;4.13;;;3.58;;
75984;SDS011;65033;44.660;37.758;2023-02-26T01:59:30;6.25;;;3.42;;
75984;SDS011;65033;44.660;37.758;2023-02-26T02:00:34;5.57;;;3.70;;
75984;SDS011;65033;44.660;37.758;2023-02-26T02:01:38;5.18;;;3.92;;
75984;SDS011;65033;44.660;37.758;2023-02-26T02:02:43;5.15;;;3.15;;
75984;SDS011;65033;44.660;37.758;2023-02-26T02:03:47;5.20;;;3.50;;
75984;SDS011;65033;44.660;37.758;2023-02-26T02:04:57;5.63;;;3.33;;
75984;SDS011;65033;44.660;37.758;2023-02-26T02:06:06;4.00;;;3.30;;
75984;SDS011;65033;44.660;37.758;2023-02-26T02:07:11;5.85;;;3.35;;
75984;SDS011;65033;44.660;37.758;2023-02-26T02:08:14;5.13;;;3.40;;
75984;SDS011;65033;44.660;37.758;2023-02-26T02:09:18;6.63;;;3.65;;
75984;SDS011;65033;44.660;37.758;2023-02-26T02:10:22;5.32;;;3.65;;
75984;SDS011;65033;44.660;37.758;2023-02-26T02:11:25;5.78;;;3.28;;
75984;SDS011;65033;44.660;37.758;2023-02-26T02:12:29;5.35;;;3.25;;
75984;SDS011;65033;44.660;37.758;2023-02-26T02:13:45;5.75;;;3.58;;
75984;SDS011;65033;44.660;37.758;2023-02-26T02:15:02;4.28;;;2.92;;
75984;SDS011;65033;44.660;37.758;2023-02-26T02:16:15;5.25;;;3.28;;
75984;SDS011;65033;44.660;37.758;2023-02-26T02:17:26;5.57;;;3.38;;
75984;SDS011;65033;44.660;37.758;2023-02-26T02:18:40;5.72;;;3.60;;
75984;SDS011;65033;44.660;37.758;2023-02-26T02:19:58;6.00;;;3.42;;
75984;SDS011;65033;44.660;37.758;2023-02-26T02:22:59;5.22;;;3.55;;
75984;SDS011;65033;44.660;37.758;2023-02-26T02:24:11;5.68;;;3.60;;
75984;SDS011;65033;44.660;37.758;2023-02-26T02:25:19;5.43;;;3.55;;
75984;SDS011;65033;44.660;37.758;2023-02-26T02:27:01;4.72;;;3.15;;
75984;SDS011;65033;44.660;37.758;2023-02-26T02:28:11;5.60;;;3.42;;
75984;SDS011;65033;44.660;37.758;2023-02-26T02:31:03;5.85;;;3.15;;
75984;SDS011;65033;44.660;37.758;2023-02-26T02:32:10;6.35;;;3.38;;
75984;SDS011;65033;44.660;37.758;2023-02-26T02:33:17;5.15;;;3.70;;
75984;SDS011;65033;44.660;37.758;2023-02-26T02:34:26;6.03;;;3.50;;
75984;SDS011;65033;44.660;37.758;2023-02-26T02:35:37;4.47;;;3.15;;
75984;SDS011;65033;44.660;37.758;2023-02-26T02:36:46;4.50;;;3.47;;
75984;SDS011;65033;44.660;37.758;2023-02-26T02:37:55;5.00;;;3.10;;
75984;SDS011;65033;44.660;37.758;2023-02-26T02:39:03;4.22;;;2.90;;
75984;SDS011;65033;44.660;37.758;2023-02-26T02:40:11;4.78;;;2.85;;
75984;SDS011;65033;44.660;37.758;2023-02-26T02:41:18;3.78;;;2.85;;
75984;SDS011;65033;44.660;37.758;2023-02-26T02:42:24;5.65;;;3.13;;
75984;SDS011;65033;44.660;37.758;2023-02-26T02:43:32;6.57;;;3.78;;
75984;SDS011;65033;44.660;37.758;2023-02-26T02:44:38;4.90;;;3.65;;
75984;SDS011;65033;44.660;37.758;2023-02-26T02:45:46;5.03;;;3.40;;
75984;SDS011;65033;44.660;37.758;2023-02-26T02:46:54;6.13;;;3.45;;
75984;SDS011;65033;44.660;37.758;2023-02-26T02:48:00;4.53;;;3.05;;
75984;SDS011;65033;44.660;37.758;2023-02-26T02:49:08;6.45;;;3.00;;
75984;SDS011;65033;44.660;37.758;2023-02-26T02:50:18;5.32;;;3.50;;
75984;SDS011;65033;44.660;37.758;2023-02-26T02:51:27;4.68;;;3.47;;
75984;SDS011;65033;44.660;37.758;2023-02-26T02:52:35;6.40;;;3.72;;
75984;SDS011;65033;44.660;37.758;2023-02-26T02:53:46;4.85;;;3.75;;
75984;SDS011;65033;44.660;37.758;2023-02-26T02:54:53;5.40;;;3.35;;
75984;SDS011;65033;44.660;37.758;2023-02-26T02:56:01;6.10;;;3.45;;
75984;SDS011;65033;44.660;37.758;2023-02-26T02:57:10;5.60;;;3.53;;
75984;SDS011;65033;44.660;37.758;2023-02-26T02:59:25;6.68;;;3.63;;
75984;SDS011;65033;44.660;37.758;2023-02-26T03:00:34;5.75;;;3.50;;
75984;SDS011;65033;44.660;37.758;2023-02-26T03:01:42;5.40;;;3.25;;
75984;SDS011;65033;44.660;37.758;2023-02-26T03:02:50;5.57;;;3.25;;
75984;SDS011;65033;44.660;37.758;2023-02-26T03:04:00;4.50;;;3.15;;
75984;SDS011;65033;44.660;37.758;2023-02-26T03:05:07;6.50;;;3.67;;
75984;SDS011;65033;44.660;37.758;2023-02-26T03:06:10;4.47;;;3.38;;
75984;SDS011;65033;44.660;37.758;2023-02-26T03:07:14;5.60;;;3.35;;
75984;SDS011;65033;44.660;37.758;2023-02-26T03:08:19;5.15;;;3.58;;
75984;SDS011;65033;44.660;37.758;2023-02-26T03:09:25;5.38;;;3.15;;
75984;SDS011;65033;44.660;37.758;2023-02-26T03:10:28;6.50;;;3.72;;
75984;SDS011;65033;44.660;37.758;2023-02-26T03:11:32;5.20;;;3.60;;
75984;SDS011;65033;44.660;37.758;2023-02-26T03:12:36;5.25;;;3.63;;
75984;SDS011;65033;44.660;37.758;2023-02-26T03:13:39;5.45;;;3.25;;
75984;SDS011;65033;44.660;37.758;2023-02-26T03:14:51;5.38;;;3.45;;
75984;SDS011;65033;44.660;37.758;2023-02-26T03:15:58;5.40;;;3.47;;
75984;SDS011;65033;44.660;37.758;2023-02-26T03:17:17;5.13;;;3.15;;
75984;SDS011;65033;44.660;37.758;2023-02-26T03:18:30;5.72;;;3.42;;
75984;SDS011;65033;44.660;37.758;2023-02-26T03:19:45;4.70;;;3.22;;
75984;SDS011;65033;44.660;37.758;2023-02-26T03:21:01;5.90;;;3.65;;
75984;SDS011;65033;44.660;37.758;2023-02-26T03:22:10;5.05;;;3.63;;
75984;SDS011;65033;44.660;37.758;2023-02-26T03:23:34;6.07;;;3.60;;
75984;SDS011;65033;44.660;37.758;2023-02-26T03:24:45;5.18;;;3.80;;
75984;SDS011;65033;44.660;37.758;2023-02-26T03:25:52;4.32;;;3.33;;
75984;SDS011;65033;44.660;37.758;2023-02-26T03:27:00;5.75;;;3.78;;
75984;SDS011;65033;44.660;37.758;2023-02-26T03:28:11;5.80;;;3.78;;
75984;SDS011;65033;44.660;37.758;2023-02-26T03:29:23;6.05;;;3.60;;
75984;SDS011;65033;44.660;37.758;2023-02-26T03:30:40;5.55;;;3.80;;
75984;SDS011;65033;44.660;37.758;2023-02-26T03:31:49;4.50;;;3.30;;
75984;SDS011;65033;44.660;37.758;2023-02-26T03:32:57;7.45;;;3.83;;
75984;SDS011;65033;44.660;37.758;2023-02-26T03:34:07;5.18;;;3.22;;
75984;SDS011;65033;44.660;37.758;2023-02-26T03:35:16;5.55;;;3.50;;
75984;SDS011;65033;44.660;37.758;2023-02-26T03:36:23;4.97;;;3.15;;
75984;SDS011;65033;44.660;37.758;2023-02-26T03:37:49;5.30;;;3.42;;
75984;SDS011;65033;44.660;37.758;2023-02-26T03:38:57;4.55;;;3.10;;
75984;SDS011;65033;44.660;37.758;2023-02-26T03:40:04;7.43;;;3.28;;
75984;SDS011;65033;44.660;37.758;2023-02-26T03:42:17;6.22;;;3.60;;
75984;SDS011;65033;44.660;37.758;2023-02-26T03:43:30;4.90;;;3.25;;
75984;SDS011;65033;44.660;37.758;2023-02-26T03:44:42;4.68;;;3.05;;
75984;SDS011;65033;44.660;37.758;2023-02-26T03:45:51;5.00;;;3.10;;
75984;SDS011;65033;44.660;37.758;2023-02-26T03:46:59;5.55;;;3.38;;
75984;SDS011;65033;44.660;37.758;2023-02-26T03:48:06;6.47;;;3.45;;
75984;SDS011;65033;44.660;37.758;2023-02-26T03:49:14;4.82;;;3.53;;
75984;SDS011;65033;44.660;37.758;2023-02-26T03:50:23;5.57;;;3.85;;
75984;SDS011;65033;44.660;37.758;2023-02-26T03:51:52;8.60;;;4.03;;
75984;SDS011;65033;44.660;37.758;2023-02-26T03:53:20;9.00;;;4.35;;
75984;SDS011;65033;44.660;37.758;2023-02-26T03:54:32;7.30;;;4.40;;
75984;SDS011;65033;44.660;37.758;2023-02-26T03:56:04;6.85;;;4.40;;
75984;SDS011;65033;44.660;37.758;2023-02-26T03:57:48;6.68;;;5.03;;
75984;SDS011;65033;44.660;37.758;2023-02-26T03:59:00;6.88;;;4.90;;
75984;SDS011;65033;44.660;37.758;2023-02-26T04:00:19;8.00;;;5.07;;
75984;SDS011;65033;44.660;37.758;2023-02-26T04:01:25;6.50;;;4.75;;
75984;SDS011;65033;44.660;37.758;2023-02-26T04:02:36;7.63;;;5.60;;
75984;SDS011;65033;44.660;37.758;2023-02-26T04:03:49;8.70;;;5.70;;
75984;SDS011;65033;44.660;37.758;2023-02-26T04:04:59;9.05;;;5.40;;
75984;SDS011;65033;44.660;37.758;2023-02-26T04:06:08;11.80;;;7.05;;
75984;SDS011;65033;44.660;37.758;2023-02-26T04:07:13;8.00;;;5.97;;
75984;SDS011;65033;44.660;37.758;2023-02-26T04:08:18;9.27;;;6.15;;
75984;SDS011;65033;44.660;37.758;2023-02-26T04:09:23;8.52;;;6.10;;
75984;SDS011;65033;44.660;37.758;2023-02-26T04:10:28;8.52;;;5.75;;
75984;SDS011;65033;44.660;37.758;2023-02-26T04:11:35;8.00;;;5.47;;
75984;SDS011;65033;44.660;37.758;2023-02-26T04:12:40;8.68;;;6.82;;
75984;SDS011;65033;44.660;37.758;2023-02-26T04:13:44;8.57;;;6.28;;
75984;SDS011;65033;44.660;37.758;2023-02-26T04:14:48;8.25;;;6.18;;
75984;SDS011;65033;44.660;37.758;2023-02-26T04:15:52;7.80;;;5.88;;
75984;SDS011;65033;44.660;37.758;2023-02-26T04:16:55;9.60;;;6.38;;
75984;SDS011;65033;44.660;37.758;2023-02-26T04:17:58;9.68;;;6.78;;
75984;SDS011;65033;44.660;37.758;2023-02-26T04:19:02;8.98;;;7.18;;
75984;SDS011;65033;44.660;37.758;2023-02-26T04:20:08;11.43;;;6.50;;
75984;SDS011;65033;44.660;37.758;2023-02-26T04:21:13;9.32;;;6.88;;
75984;SDS011;65033;44.660;37.758;2023-02-26T04:22:21;8.15;;;6.72;;
75984;SDS011;65033;44.660;37.758;2023-02-26T04:23:25;9.30;;;6.78;;
75984;SDS011;65033;44.660;37.758;2023-02-26T04:24:28;7.75;;;6.55;;
75984;SDS011;65033;44.660;37.758;2023-02-26T04:25:34;9.27;;;6.53;;
75984;SDS011;65033;44.660;37.758;2023-02-26T04:26:38;8.68;;;6.65;;
75984;SDS011;65033;44.660;37.758;2023-02-26T04:27:41;9.18;;;7.10;;
75984;SDS011;65033;44.660;37.758;2023-02-26T04:28:45;10.02;;;7.03;;
75984;SDS011;65033;44.660;37.758;2023-02-26T04:29:48;10.75;;;6.70;;
75984;SDS011;65033;44.660;37.758;2023-02-26T04:30:51;10.52;;;6.90;;
75984;SDS011;65033;44.660;37.758;2023-02-26T04:31:55;8.82;;;6.68;;
75984;SDS011;65033;44.660;37.758;2023-02-26T04:32:58;10.30;;;7.50;;
75984;SDS011;65033;44.660;37.758;2023-02-26T04:34:02;9.98;;;6.75;;
75984;SDS011;65033;44.660;37.758;2023-02-26T04:35:07;10.13;;;6.75;;
75984;SDS011;65033;44.660;37.758;2023-02-26T04:36:11;8.93;;;6.60;;
75984;SDS011;65033;44.660;37.758;2023-02-26T04:37:15;8.68;;;6.32;;
75984;SDS011;65033;44.660;37.758;2023-02-26T04:38:18;8.57;;;6.40;;
75984;SDS011;65033;44.660;37.758;2023-02-26T04:39:22;12.90;;;8.55;;
75984;SDS011;65033;44.660;37.758;2023-02-26T04:40:25;13.75;;;9.60;;
75984;SDS011;65033;44.660;37.758;2023-02-26T04:41:29;16.95;;;9.05;;
75984;SDS011;65033;44.660;37.758;2023-02-26T04:42:32;11.52;;;8.40;;
75984;SDS011;65033;44.660;37.758;2023-02-26T04:43:36;9.80;;;7.18;;
75984;SDS011;65033;44.660;37.758;2023-02-26T04:44:52;10.77;;;7.47;;
75984;SDS011;65033;44.660;37.758;2023-02-26T04:45:58;10.18;;;7.40;;
75984;SDS011;65033;44.660;37.758;2023-02-26T04:47:03;10.65;;;7.57;;
75984;SDS011;65033;44.660;37.758;2023-02-26T04:48:08;9.18;;;7.00;;
75984;SDS011;65033;44.660;37.758;2023-02-26T04:49:11;9.93;;;7.75;;
75984;SDS011;65033;44.660;37.758;2023-02-26T04:50:19;11.20;;;7.45;;
75984;SDS011;65033;44.660;37.758;2023-02-26T04:51:25;10.50;;;7.55;;
75984;SDS011;65033;44.660;37.758;2023-02-26T04:52:29;10.18;;;7.60;;
75984;SDS011;65033;44.660;37.758;2023-02-26T04:53:33;10.77;;;7.70;;
75984;SDS011;65033;44.660;37.758;2023-02-26T04:54:36;11.73;;;8.20;;
75984;SDS011;65033;44.660;37.758;2023-02-26T04:55:39;12.13;;;7.53;;
75984;SDS011;65033;44.660;37.758;2023-02-26T04:56:43;11.07;;;7.90;;
75984;SDS011;65033;44.660;37.758;2023-02-26T04:57:46;9.90;;;7.75;;
75984;SDS011;65033;44.660;37.758;2023-02-26T04:58:49;11.27;;;8.48;;
75984;SDS011;65033;44.660;37.758;2023-02-26T05:00:00;12.13;;;8.98;;
75984;SDS011;65033;44.660;37.758;2023-02-26T05:01:10;11.68;;;8.15;;
75984;SDS011;65033;44.660;37.758;2023-02-26T05:02:16;10.85;;;9.02;;
75984;SDS011;65033;44.660;37.758;2023-02-26T05:03:22;11.80;;;8.07;;
75984;SDS011;65033;44.660;37.758;2023-02-26T05:04:25;10.30;;;8.30;;
75984;SDS011;65033;44.660;37.758;2023-02-26T05:05:34;11.85;;;8.25;;
75984;SDS011;65033;44.660;37.758;2023-02-26T05:06:38;10.48;;;7.95;;
75984;SDS011;65033;44.660;37.758;2023-02-26T05:07:42;11.98;;;8.55;;
75984;SDS011;65033;44.660;37.758;2023-02-26T05:08:45;11.43;;;8.43;;
75984;SDS011;65033;44.660;37.758;2023-02-26T05:09:49;11.75;;;8.20;;
75984;SDS011;65033;44.660;37.758;2023-02-26T05:10:52;13.20;;;8.23;;
75984;SDS011;65033;44.660;37.758;2023-02-26T05:11:56;11.13;;;8.65;;
75984;SDS011;65033;44.660;37.758;2023-02-26T05:12:59;10.02;;;8.02;;
75984;SDS011;65033;44.660;37.758;2023-02-26T05:14:02;12.57;;;8.60;;
75984;SDS011;65033;44.660;37.758;2023-02-26T05:15:06;11.18;;;8.25;;
75984;SDS011;65033;44.660;37.758;2023-02-26T05:16:10;12.68;;;8.50;;
75984;SDS011;65033;44.660;37.758;2023-02-26T05:17:13;12.77;;;8.35;;
75984;SDS011;65033;44.660;37.758;2023-02-26T05:18:17;9.50;;;7.63;;
75984;SDS011;65033;44.660;37.758;2023-02-26T05:19:21;11.15;;;8.18;;
75984;SDS011;65033;44.660;37.758;2023-02-26T05:20:24;11.82;;;8.18;;
75984;SDS011;65033;44.660;37.758;2023-02-26T05:21:29;12.25;;;8.40;;
75984;SDS011;65033;44.660;37.758;2023-02-26T05:22:33;9.77;;;7.80;;
75984;SDS011;65033;44.660;37.758;2023-02-26T05:23:36;11.50;;;8.07;;
75984;SDS011;65033;44.660;37.758;2023-02-26T05:24:39;9.65;;;7.60;;
75984;SDS011;65033;44.660;37.758;2023-02-26T05:25:42;10.52;;;7.75;;
75984;SDS011;65033;44.660;37.758;2023-02-26T05:26:46;11.48;;;8.60;;
75984;SDS011;65033;44.660;37.758;2023-02-26T05:27:49;14.23;;;8.73;;
75984;SDS011;65033;44.660;37.758;2023-02-26T05:28:52;11.23;;;8.20;;
75984;SDS011;65033;44.660;37.758;2023-02-26T05:29:55;13.57;;;9.55;;
75984;SDS011;65033;44.660;37.758;2023-02-26T05:30:59;12.25;;;8.70;;
75984;SDS011;65033;44.660;37.758;2023-02-26T05:32:02;10.85;;;7.90;;
75984;SDS011;65033;44.660;37.758;2023-02-26T05:33:06;10.93;;;8.48;;
75984;SDS011;65033;44.660;37.758;2023-02-26T05:34:09;12.55;;;8.35;;
75984;SDS011;65033;44.660;37.758;2023-02-26T05:35:12;10.35;;;8.18;;
75984;SDS011;65033;44.660;37.758;2023-02-26T05:36:16;11.57;;;8.75;;
75984;SDS011;65033;44.660;37.758;2023-02-26T05:37:20;11.75;;;9.27;;
75984;SDS011;65033;44.660;37.758;2023-02-26T05:38:24;12.95;;;9.40;;
75984;SDS011;65033;44.660;37.758;2023-02-26T05:39:27;13.40;;;10.15;;
75984;SDS011;65033;44.660;37.758;2023-02-26T05:40:31;14.30;;;10.35;;
75984;SDS011;65033;44.660;37.758;2023-02-26T05:41:34;13.23;;;10.23;;
75984;SDS011;65033;44.660;37.758;2023-02-26T05:42:37;13.20;;;10.10;;
75984;SDS011;65033;44.660;37.758;2023-02-26T05:43:41;11.30;;;9.98;;
75984;SDS011;65033;44.660;37.758;2023-02-26T05:44:44;13.10;;;9.90;;
75984;SDS011;65033;44.660;37.758;2023-02-26T05:45:48;13.05;;;10.40;;
75984;SDS011;65033;44.660;37.758;2023-02-26T05:46:52;13.13;;;10.00;;
75984;SDS011;65033;44.660;37.758;2023-02-26T05:47:55;13.35;;;10.07;;
75984;SDS011;65033;44.660;37.758;2023-02-26T05:48:58;13.70;;;10.82;;
75984;SDS011;65033;44.660;37.758;2023-02-26T05:50:02;14.07;;;10.95;;
75984;SDS011;65033;44.660;37.758;2023-02-26T05:51:05;15.15;;;10.98;;
75984;SDS011;65033;44.660;37.758;2023-02-26T05:52:08;14.60;;;11.50;;
75984;SDS011;65033;44.660;37.758;2023-02-26T05:53:13;15.02;;;11.23;;
75984;SDS011;65033;44.660;37.758;2023-02-26T05:54:17;15.73;;;11.40;;
75984;SDS011;65033;44.660;37.758;2023-02-26T05:55:20;13.48;;;11.23;;
75984;SDS011;65033;44.660;37.758;2023-02-26T05:56:24;15.30;;;11.10;;
75984;SDS011;65033;44.660;37.758;2023-02-26T05:57:28;15.27;;;11.02;;
75984;SDS011;65033;44.660;37.758;2023-02-26T05:58:31;15.13;;;12.32;;
75984;SDS011;65033;44.660;37.758;2023-02-26T05:59:35;15.10;;;12.13;;
75984;SDS011;65033;44.660;37.758;2023-02-26T06:00:40;15.07;;;12.65;;
75984;SDS011;65033;44.660;37.758;2023-02-26T06:01:45;16.63;;;12.00;;
75984;SDS011;65033;44.660;37.758;2023-02-26T06:02:48;16.67;;;13.02;;
75984;SDS011;65033;44.660;37.758;2023-02-26T06:03:51;16.13;;;12.10;;
75984;SDS011;65033;44.660;37.758;2023-02-26T06:04:55;15.40;;;12.18;;
75984;SDS011;65033;44.660;37.758;2023-02-26T06:05:58;16.80;;;11.95;;
75984;SDS011;65033;44.660;37.758;2023-02-26T06:07:01;15.55;;;12.57;;
75984;SDS011;65033;44.660;37.758;2023-02-26T06:08:05;14.93;;;12.18;;
75984;SDS011;65033;44.660;37.758;2023-02-26T06:09:10;14.27;;;11.98;;
75984;SDS011;65033;44.660;37.758;2023-02-26T06:10:13;18.08;;;12.50;;
75984;SDS011;65033;44.660;37.758;2023-02-26T06:11:16;16.30;;;12.18;;
75984;SDS011;65033;44.660;37.758;2023-02-26T06:12:19;18.52;;;13.32;;
75984;SDS011;65033;44.660;37.758;2023-02-26T06:13:23;15.85;;;12.38;;
75984;SDS011;65033;44.660;37.758;2023-02-26T06:14:26;16.65;;;13.25;;
75984;SDS011;65033;44.660;37.758;2023-02-26T06:15:30;17.90;;;14.07;;
75984;SDS011;65033;44.660;37.758;2023-02-26T06:16:33;17.38;;;13.63;;
75984;SDS011;65033;44.660;37.758;2023-02-26T06:17:37;16.52;;;13.07;;
75984;SDS011;65033;44.660;37.758;2023-02-26T06:18:42;17.67;;;14.05;;
75984;SDS011;65033;44.660;37.758;2023-02-26T06:19:45;17.45;;;13.55;;
75984;SDS011;65033;44.660;37.758;2023-02-26T06:20:48;18.50;;;13.90;;
75984;SDS011;65033;44.660;37.758;2023-02-26T06:21:51;16.90;;;14.27;;
75984;SDS011;65033;44.660;37.758;2023-02-26T06:22:55;16.75;;;14.07;;
75984;SDS011;65033;44.660;37.758;2023-02-26T06:23:58;22.30;;;14.50;;
75984;SDS011;65033;44.660;37.758;2023-02-26T06:25:03;17.63;;;14.07;;
75984;SDS011;65033;44.660;37.758;2023-02-26T06:26:07;17.23;;;13.77;;
75984;SDS011;65033;44.660;37.758;2023-02-26T06:27:10;20.23;;;14.20;;
75984;SDS011;65033;44.660;37.758;2023-02-26T06:28:14;15.65;;;13.15;;
75984;SDS011;65033;44.660;37.758;2023-02-26T06:29:17;17.98;;;13.85;;
75984;SDS011;65033;44.660;37.758;2023-02-26T06:30:22;18.52;;;14.43;;
75984;SDS011;65033;44.660;37.758;2023-02-26T06:31:25;18.67;;;14.23;;
75984;SDS011;65033;44.660;37.758;2023-02-26T06:32:29;19.25;;;14.27;;
75984;SDS011;65033;44.660;37.758;2023-02-26T06:33:32;18.20;;;13.85;;
75984;SDS011;65033;44.660;37.758;2023-02-26T06:34:35;17.35;;;14.13;;
75984;SDS011;65033;44.660;37.758;2023-02-26T06:35:39;17.38;;;14.10;;
75984;SDS011;65033;44.660;37.758;2023-02-26T06:36:44;18.08;;;13.85;;
75984;SDS011;65033;44.660;37.758;2023-02-26T06:37:47;16.38;;;13.75;;
75984;SDS011;65033;44.660;37.758;2023-02-26T06:38:50;18.42;;;13.73;;
75984;SDS011;65033;44.660;37.758;2023-02-26T06:39:53;20.77;;;14.52;;
75984;SDS011;65033;44.660;37.758;2023-02-26T06:40:58;17.83;;;13.95;;
75984;SDS011;65033;44.660;37.758;2023-02-26T06:42:01;17.35;;;14.52;;